FBD727 UNKL-UNNT
Flight info
| Callsign | FBD727 |
|---|---|
| Flight time | N/A |
| Altitude | 40000 |
| Route | K0876F380 APRUS2F APRUS B926 KESED/K0889F430 B926 NATIR NATIR1N |
| Aircraft | C700/M-SBDGHM1RWXY/LB2 |
Departure
| Time | 2026-05-01 15:18 |
|---|---|
| Airport | Krasnoyarsk International Airport (UNKL) |
Arrival
| Time | N/A |
|---|---|
| Airport | Novosibirsk Tolmachevo Airport (UNNT) |
| Time | Latitude | Longitude | Altitude | Speed | Heading |
|---|---|---|---|---|---|
| 2026-05-01 14:54 | 56.18088 | 92.47453 | 951 ft | 0 kts | 25° |
| 2026-05-01 15:03 | 56.18091 | 92.47456 | 951 ft | 2 kts | 25° |
| 2026-05-01 15:04 | 56.18125 | 92.47489 | 951 ft | 5 kts | 49° |
| 2026-05-01 15:04 | 56.18123 | 92.47544 | 951 ft | 6 kts | 111° |
| 2026-05-01 15:04 | 56.18096 | 92.47655 | 951 ft | 12 kts | 112° |
| 2026-05-01 15:04 | 56.18059 | 92.47760 | 950 ft | 8 kts | 133° |
| 2026-05-01 15:05 | 56.18035 | 92.47847 | 951 ft | 9 kts | 114° |
| 2026-05-01 15:05 | 56.18009 | 92.47946 | 951 ft | 5 kts | 126° |
| 2026-05-01 15:05 | 56.17982 | 92.47960 | 951 ft | 5 kts | 184° |
| 2026-05-01 15:05 | 56.17930 | 92.47924 | 949 ft | 10 kts | 203° |
| 2026-05-01 15:06 | 56.17867 | 92.47892 | 951 ft | 7 kts | 167° |
| 2026-05-01 15:06 | 56.17840 | 92.47956 | 950 ft | 10 kts | 113° |
| 2026-05-01 15:06 | 56.17795 | 92.48145 | 951 ft | 22 kts | 113° |
| 2026-05-01 15:06 | 56.17733 | 92.48408 | 951 ft | 24 kts | 107° |
| 2026-05-01 15:07 | 56.17672 | 92.48691 | 950 ft | 25 kts | 113° |
| 2026-05-01 15:07 | 56.17617 | 92.48918 | 951 ft | 10 kts | 113° |
| 2026-05-01 15:07 | 56.17588 | 92.49050 | 951 ft | 15 kts | 113° |
| 2026-05-01 15:07 | 56.17536 | 92.49266 | 951 ft | 23 kts | 112° |
| 2026-05-01 15:08 | 56.17465 | 92.49564 | 950 ft | 28 kts | 113° |
| 2026-05-01 15:08 | 56.17387 | 92.49897 | 951 ft | 30 kts | 113° |
| 2026-05-01 15:08 | 56.17307 | 92.50232 | 951 ft | 27 kts | 113° |
| 2026-05-01 15:08 | 56.17231 | 92.50554 | 951 ft | 29 kts | 113° |
| 2026-05-01 15:09 | 56.17149 | 92.50894 | 950 ft | 30 kts | 113° |
| 2026-05-01 15:09 | 56.17064 | 92.51253 | 950 ft | 32 kts | 113° |
| 2026-05-01 15:09 | 56.16988 | 92.51573 | 951 ft | 23 kts | 113° |
| 2026-05-01 15:09 | 56.16942 | 92.51768 | 951 ft | 5 kts | 113° |
| 2026-05-01 15:10 | 56.16920 | 92.51855 | 950 ft | 10 kts | 114° |
| 2026-05-01 15:10 | 56.16853 | 92.52010 | 950 ft | 0 kts | 175° |
| 2026-05-01 15:12 | 56.16833 | 92.52014 | 951 ft | 5 kts | 173° |
| 2026-05-01 15:12 | 56.16820 | 92.52017 | 951 ft | 0 kts | 173° |
| 2026-05-01 15:14 | 56.16819 | 92.52017 | 951 ft | 1 kts | 173° |
| 2026-05-01 15:15 | 56.16679 | 92.52033 | 947 ft | 10 kts | 201° |
| 2026-05-01 15:15 | 56.16673 | 92.51942 | 949 ft | 0 kts | 292° |
| 2026-05-01 15:16 | 56.16984 | 92.50626 | 948 ft | 142 kts | 293° |
| 2026-05-01 15:17 | 56.18000 | 92.46333 | 1011 ft | 212 kts | 294° |
| 2026-05-01 15:18 | 56.20133 | 92.37365 | 2737 ft | 247 kts | 292° |
| 2026-05-01 15:18 | 56.20803 | 92.34536 | 2943 ft | 246 kts | 292° |
| 2026-05-01 15:19 | 56.20907 | 92.26085 | 4167 ft | 216 kts | 247° |
| 2026-05-01 15:19 | 56.19898 | 92.21512 | 5535 ft | 168 kts | 249° |
| 2026-05-01 15:19 | 56.19471 | 92.19525 | 6201 ft | 181 kts | 250° |
| 2026-05-01 15:20 | 56.18483 | 92.14901 | 8137 ft | 209 kts | 250° |
| 2026-05-01 15:20 | 56.17951 | 92.12419 | 9296 ft | 215 kts | 251° |
| 2026-05-01 15:20 | 56.17406 | 92.09889 | 10471 ft | 219 kts | 251° |
| 2026-05-01 15:21 | 56.16855 | 92.07326 | 11624 ft | 221 kts | 252° |
| 2026-05-01 15:21 | 56.16297 | 92.04739 | 12830 ft | 224 kts | 253° |
| 2026-05-01 15:21 | 56.15742 | 92.02162 | 14062 ft | 224 kts | 253° |
| 2026-05-01 15:21 | 56.15177 | 91.99554 | 15203 ft | 223 kts | 253° |
| 2026-05-01 15:22 | 56.14066 | 91.94419 | 17521 ft | 218 kts | 255° |
| 2026-05-01 15:22 | 56.13518 | 91.91902 | 18626 ft | 214 kts | 255° |
| 2026-05-01 15:22 | 56.12983 | 91.89439 | 19585 ft | 209 kts | 256° |
| 2026-05-01 15:23 | 56.12460 | 91.87038 | 20498 ft | 204 kts | 256° |
| 2026-05-01 15:23 | 56.11952 | 91.84695 | 21359 ft | 200 kts | 256° |
| 2026-05-01 15:23 | 56.11450 | 91.82397 | 22179 ft | 197 kts | 256° |
| 2026-05-01 15:23 | 56.11021 | 91.80104 | 22973 ft | 191 kts | 265° |
| 2026-05-01 15:24 | 56.10794 | 91.77781 | 23730 ft | 189 kts | 266° |
| 2026-05-01 15:24 | 56.10504 | 91.75489 | 24358 ft | 189 kts | 263° |
| 2026-05-01 15:24 | 56.10197 | 91.73211 | 24976 ft | 187 kts | 264° |
| 2026-05-01 15:24 | 56.09896 | 91.70959 | 25585 ft | 186 kts | 264° |
| 2026-05-01 15:25 | 56.09594 | 91.68720 | 26173 ft | 184 kts | 265° |
| 2026-05-01 15:25 | 56.09297 | 91.66496 | 26752 ft | 183 kts | 265° |
| 2026-05-01 15:25 | 56.09000 | 91.64293 | 27317 ft | 182 kts | 266° |
| 2026-05-01 15:25 | 56.08705 | 91.62096 | 27870 ft | 181 kts | 266° |
| 2026-05-01 15:26 | 56.08409 | 91.59908 | 28381 ft | 183 kts | 266° |
| 2026-05-01 15:26 | 56.08108 | 91.57600 | 28640 ft | 197 kts | 265° |
| 2026-05-01 15:26 | 56.07774 | 91.55141 | 28944 ft | 209 kts | 265° |
| 2026-05-01 15:26 | 56.07420 | 91.52535 | 29284 ft | 220 kts | 265° |
| 2026-05-01 15:27 | 56.07049 | 91.49822 | 29733 ft | 229 kts | 264° |
| 2026-05-01 15:27 | 56.06797 | 91.47957 | 30071 ft | 235 kts | 264° |
| 2026-05-01 15:27 | 56.06402 | 91.45067 | 30568 ft | 242 kts | 264° |
| 2026-05-01 15:28 | 56.05584 | 91.39086 | 31630 ft | 252 kts | 264° |
| 2026-05-01 15:28 | 56.05162 | 91.36018 | 32195 ft | 256 kts | 264° |
| 2026-05-01 15:28 | 56.04736 | 91.32910 | 32773 ft | 258 kts | 265° |
| 2026-05-01 15:29 | 56.03869 | 91.26630 | 33963 ft | 261 kts | 265° |
| 2026-05-01 15:29 | 56.03435 | 91.23475 | 34489 ft | 262 kts | 265° |
| 2026-05-01 15:29 | 56.02555 | 91.17134 | 35491 ft | 263 kts | 265° |
| 2026-05-01 15:30 | 56.01673 | 91.10797 | 36446 ft | 263 kts | 264° |
| 2026-05-01 15:31 | 55.99906 | 90.98176 | 38144 ft | 260 kts | 264° |
| 2026-05-01 15:31 | 55.99023 | 90.91905 | 38849 ft | 259 kts | 264° |
| 2026-05-01 15:32 | 55.98143 | 90.85678 | 39374 ft | 258 kts | 264° |
| 2026-05-01 15:32 | 55.97264 | 90.79482 | 39823 ft | 260 kts | 263° |
| 2026-05-01 15:33 | 55.95895 | 90.69854 | 40093 ft | 280 kts | 263° |
| 2026-05-01 15:34 | 55.94367 | 90.59224 | 40104 ft | 310 kts | 262° |